sensor_id;sensor_type;location;lat;lon;timestamp;P1;durP1;ratioP1;P2;durP2;ratioP2
51020;SDS011;38907;45.562;8.856;2023-04-03T00:00:28;13.75;;;9.32;;
51020;SDS011;38907;45.562;8.856;2023-04-03T00:05:33;13.07;;;9.30;;
51020;SDS011;38907;45.562;8.856;2023-04-03T00:10:35;12.60;;;9.00;;
51020;SDS011;38907;45.562;8.856;2023-04-03T00:15:37;21.50;;;10.02;;
51020;SDS011;38907;45.562;8.856;2023-04-03T00:20:41;14.38;;;10.20;;
51020;SDS011;38907;45.562;8.856;2023-04-03T00:30:46;12.00;;;8.73;;
51020;SDS011;38907;45.562;8.856;2023-04-03T00:35:51;11.95;;;9.02;;
51020;SDS011;38907;45.562;8.856;2023-04-03T00:40:53;13.50;;;9.20;;
51020;SDS011;38907;45.562;8.856;2023-04-03T00:45:55;13.48;;;8.63;;
51020;SDS011;38907;45.562;8.856;2023-04-03T00:50:59;12.13;;;8.60;;
51020;SDS011;38907;45.562;8.856;2023-04-03T00:56:02;11.85;;;8.50;;
51020;SDS011;38907;45.562;8.856;2023-04-03T01:01:12;19.38;;;9.52;;
51020;SDS011;38907;45.562;8.856;2023-04-03T01:06:20;14.00;;;10.25;;
51020;SDS011;38907;45.562;8.856;2023-04-03T01:11:26;13.07;;;9.65;;
51020;SDS011;38907;45.562;8.856;2023-04-03T01:16:28;18.55;;;9.38;;
51020;SDS011;38907;45.562;8.856;2023-04-03T01:27:11;19.25;;;8.77;;
51020;SDS011;38907;45.562;8.856;2023-04-03T01:32:14;11.45;;;8.48;;
51020;SDS011;38907;45.562;8.856;2023-04-03T01:37:16;12.70;;;7.80;;
51020;SDS011;38907;45.562;8.856;2023-04-03T01:42:18;9.65;;;7.53;;
51020;SDS011;38907;45.562;8.856;2023-04-03T01:47:21;10.15;;;6.97;;
51020;SDS011;38907;45.562;8.856;2023-04-03T01:52:23;9.48;;;6.63;;
51020;SDS011;38907;45.562;8.856;2023-04-03T01:57:25;12.57;;;7.47;;
51020;SDS011;38907;45.562;8.856;2023-04-03T02:02:28;9.75;;;6.15;;
51020;SDS011;38907;45.562;8.856;2023-04-03T02:07:30;8.65;;;6.18;;
51020;SDS011;38907;45.562;8.856;2023-04-03T02:12:32;10.15;;;6.50;;
51020;SDS011;38907;45.562;8.856;2023-04-03T02:17:36;11.95;;;6.72;;
51020;SDS011;38907;45.562;8.856;2023-04-03T02:22:37;11.07;;;5.97;;
51020;SDS011;38907;45.562;8.856;2023-04-03T02:27:39;11.38;;;6.97;;
51020;SDS011;38907;45.562;8.856;2023-04-03T02:32:43;11.30;;;6.72;;
51020;SDS011;38907;45.562;8.856;2023-04-03T02:37:45;9.02;;;6.22;;
51020;SDS011;38907;45.562;8.856;2023-04-03T02:42:47;12.48;;;5.80;;
51020;SDS011;38907;45.562;8.856;2023-04-03T02:47:51;9.93;;;6.70;;
51020;SDS011;38907;45.562;8.856;2023-04-03T02:52:52;7.43;;;5.38;;
51020;SDS011;38907;45.562;8.856;2023-04-03T02:57:54;8.55;;;5.90;;
51020;SDS011;38907;45.562;8.856;2023-04-03T03:02:57;8.93;;;5.68;;
51020;SDS011;38907;45.562;8.856;2023-04-03T03:07:59;7.80;;;5.30;;
51020;SDS011;38907;45.562;8.856;2023-04-03T03:13:01;8.43;;;5.70;;
51020;SDS011;38907;45.562;8.856;2023-04-03T03:18:04;6.82;;;4.70;;
51020;SDS011;38907;45.562;8.856;2023-04-03T03:23:06;8.90;;;5.32;;
51020;SDS011;38907;45.562;8.856;2023-04-03T03:28:08;6.97;;;5.00;;
51020;SDS011;38907;45.562;8.856;2023-04-03T03:33:12;8.25;;;5.00;;
51020;SDS011;38907;45.562;8.856;2023-04-03T03:38:14;6.28;;;4.40;;
51020;SDS011;38907;45.562;8.856;2023-04-03T03:43:16;6.85;;;4.40;;
51020;SDS011;38907;45.562;8.856;2023-04-03T03:48:20;8.68;;;5.82;;
51020;SDS011;38907;45.562;8.856;2023-04-03T03:58:24;7.53;;;4.88;;
51020;SDS011;38907;45.562;8.856;2023-04-03T04:03:27;6.10;;;5.00;;
51020;SDS011;38907;45.562;8.856;2023-04-03T04:08:29;8.10;;;4.85;;
51020;SDS011;38907;45.562;8.856;2023-04-03T04:13:31;8.07;;;5.10;;
51020;SDS011;38907;45.562;8.856;2023-04-03T04:18:34;5.90;;;4.13;;
51020;SDS011;38907;45.562;8.856;2023-04-03T04:23:36;10.20;;;5.20;;
51020;SDS011;38907;45.562;8.856;2023-04-03T04:28:38;7.00;;;5.53;;
51020;SDS011;38907;45.562;8.856;2023-04-03T04:33:41;7.30;;;4.40;;
51020;SDS011;38907;45.562;8.856;2023-04-03T04:38:43;6.70;;;4.57;;
51020;SDS011;38907;45.562;8.856;2023-04-03T04:43:45;6.00;;;4.13;;
51020;SDS011;38907;45.562;8.856;2023-04-03T04:48:48;8.00;;;4.70;;
51020;SDS011;38907;45.562;8.856;2023-04-03T04:53:50;81.95;;;27.48;;
51020;SDS011;38907;45.562;8.856;2023-04-03T04:58:52;6.57;;;3.83;;
51020;SDS011;38907;45.562;8.856;2023-04-03T05:03:55;7.30;;;4.50;;
51020;SDS011;38907;45.562;8.856;2023-04-03T05:08:57;9.73;;;4.50;;
51020;SDS011;38907;45.562;8.856;2023-04-03T05:13:58;10.20;;;5.00;;
51020;SDS011;38907;45.562;8.856;2023-04-03T05:19:02;8.15;;;3.95;;
51020;SDS011;38907;45.562;8.856;2023-04-03T05:24:04;9.70;;;5.40;;
51020;SDS011;38907;45.562;8.856;2023-04-03T05:29:09;25.88;;;9.82;;
51020;SDS011;38907;45.562;8.856;2023-04-03T05:34:12;10.93;;;5.57;;
51020;SDS011;38907;45.562;8.856;2023-04-03T05:39:15;9.82;;;5.95;;
51020;SDS011;38907;45.562;8.856;2023-04-03T05:44:17;5.20;;;3.30;;
51020;SDS011;38907;45.562;8.856;2023-04-03T05:49:20;4.63;;;3.20;;
51020;SDS011;38907;45.562;8.856;2023-04-03T05:54:23;16.65;;;8.77;;
51020;SDS011;38907;45.562;8.856;2023-04-03T05:59:26;9.88;;;7.00;;
51020;SDS011;38907;45.562;8.856;2023-04-03T06:04:29;19.70;;;9.33;;
51020;SDS011;38907;45.562;8.856;2023-04-03T06:09:31;13.95;;;5.57;;
51020;SDS011;38907;45.562;8.856;2023-04-03T06:14:32;8.02;;;4.95;;
51020;SDS011;38907;45.562;8.856;2023-04-03T06:19:36;12.63;;;5.38;;
51020;SDS011;38907;45.562;8.856;2023-04-03T06:24:38;10.35;;;5.10;;
51020;SDS011;38907;45.562;8.856;2023-04-03T06:29:40;6.55;;;4.40;;
51020;SDS011;38907;45.562;8.856;2023-04-03T06:34:43;14.70;;;4.47;;
51020;SDS011;38907;45.562;8.856;2023-04-03T06:39:45;12.30;;;3.40;;
51020;SDS011;38907;45.562;8.856;2023-04-03T06:44:47;8.95;;;4.45;;
51020;SDS011;38907;45.562;8.856;2023-04-03T06:49:51;9.32;;;3.80;;
51020;SDS011;38907;45.562;8.856;2023-04-03T06:54:52;6.30;;;4.10;;
51020;SDS011;38907;45.562;8.856;2023-04-03T06:59:57;13.15;;;6.30;;
51020;SDS011;38907;45.562;8.856;2023-04-03T07:05:00;8.52;;;5.55;;
51020;SDS011;38907;45.562;8.856;2023-04-03T07:10:03;9.75;;;6.05;;
51020;SDS011;38907;45.562;8.856;2023-04-03T07:20:10;5.38;;;2.80;;
51020;SDS011;38907;45.562;8.856;2023-04-03T07:25:12;7.63;;;4.07;;
51020;SDS011;38907;45.562;8.856;2023-04-03T07:30:14;9.70;;;6.20;;
51020;SDS011;38907;45.562;8.856;2023-04-03T07:35:18;12.90;;;6.50;;
51020;SDS011;38907;45.562;8.856;2023-04-03T07:45:21;21.23;;;10.73;;
51020;SDS011;38907;45.562;8.856;2023-04-03T07:50:25;13.88;;;9.77;;
51020;SDS011;38907;45.562;8.856;2023-04-03T08:00:29;12.55;;;8.50;;
51020;SDS011;38907;45.562;8.856;2023-04-03T08:05:34;14.57;;;8.70;;
51020;SDS011;38907;45.562;8.856;2023-04-03T08:10:37;11.82;;;7.72;;
51020;SDS011;38907;45.562;8.856;2023-04-03T08:15:40;13.32;;;9.55;;
51020;SDS011;38907;45.562;8.856;2023-04-03T08:20:43;16.63;;;8.80;;
51020;SDS011;38907;45.562;8.856;2023-04-03T08:25:45;10.98;;;7.18;;
51020;SDS011;38907;45.562;8.856;2023-04-03T08:30:47;13.25;;;7.65;;
51020;SDS011;38907;45.562;8.856;2023-04-03T08:35:50;10.20;;;6.95;;
51020;SDS011;38907;45.562;8.856;2023-04-03T08:40:59;16.50;;;7.22;;
51020;SDS011;38907;45.562;8.856;2023-04-03T08:46:03;10.32;;;6.38;;
51020;SDS011;38907;45.562;8.856;2023-04-03T08:51:11;11.15;;;6.70;;
51020;SDS011;38907;45.562;8.856;2023-04-03T08:56:16;9.23;;;6.03;;
51020;SDS011;38907;45.562;8.856;2023-04-03T09:01:21;9.57;;;5.75;;
51020;SDS011;38907;45.562;8.856;2023-04-03T09:06:29;8.95;;;5.47;;
51020;SDS011;38907;45.562;8.856;2023-04-03T09:11:36;7.57;;;5.43;;
51020;SDS011;38907;45.562;8.856;2023-04-03T09:16:53;10.35;;;6.22;;
51020;SDS011;38907;45.562;8.856;2023-04-03T09:21:58;10.35;;;6.20;;
51020;SDS011;38907;45.562;8.856;2023-04-03T09:27:05;6.63;;;5.55;;
51020;SDS011;38907;45.562;8.856;2023-04-03T09:32:18;9.15;;;6.22;;
51020;SDS011;38907;45.562;8.856;2023-04-03T09:37:35;9.63;;;5.07;;
51020;SDS011;38907;45.562;8.856;2023-04-03T09:42:40;6.05;;;4.32;;
51020;SDS011;38907;45.562;8.856;2023-04-03T09:47:43;8.15;;;4.90;;
51020;SDS011;38907;45.562;8.856;2023-04-03T09:52:46;10.73;;;4.57;;
51020;SDS011;38907;45.562;8.856;2023-04-03T09:57:49;7.03;;;4.80;;
51020;SDS011;38907;45.562;8.856;2023-04-03T10:02:52;12.52;;;6.00;;
51020;SDS011;38907;45.562;8.856;2023-04-03T10:08:08;7.13;;;5.10;;
51020;SDS011;38907;45.562;8.856;2023-04-03T10:13:19;6.05;;;4.55;;
51020;SDS011;38907;45.562;8.856;2023-04-03T10:18:27;9.00;;;4.75;;
51020;SDS011;38907;45.562;8.856;2023-04-03T10:23:36;6.22;;;4.18;;
51020;SDS011;38907;45.562;8.856;2023-04-03T10:28:44;6.65;;;4.50;;
51020;SDS011;38907;45.562;8.856;2023-04-03T10:33:55;7.65;;;5.13;;
51020;SDS011;38907;45.562;8.856;2023-04-03T10:39:06;6.25;;;4.97;;
51020;SDS011;38907;45.562;8.856;2023-04-03T10:44:19;9.27;;;5.07;;
51020;SDS011;38907;45.562;8.856;2023-04-03T10:49:31;17.65;;;5.50;;
51020;SDS011;38907;45.562;8.856;2023-04-03T10:54:49;8.48;;;4.93;;
51020;SDS011;38907;45.562;8.856;2023-04-03T10:59:59;6.78;;;4.57;;
51020;SDS011;38907;45.562;8.856;2023-04-03T11:05:04;7.18;;;4.57;;
51020;SDS011;38907;45.562;8.856;2023-04-03T11:10:18;6.80;;;5.40;;
51020;SDS011;38907;45.562;8.856;2023-04-03T11:15:26;6.65;;;5.32;;
51020;SDS011;38907;45.562;8.856;2023-04-03T11:20:31;10.18;;;5.88;;
51020;SDS011;38907;45.562;8.856;2023-04-03T11:25:35;6.38;;;4.95;;
51020;SDS011;38907;45.562;8.856;2023-04-03T11:30:42;8.90;;;5.40;;
51020;SDS011;38907;45.562;8.856;2023-04-03T11:35:49;9.43;;;5.70;;
51020;SDS011;38907;45.562;8.856;2023-04-03T11:40:55;14.60;;;6.15;;
51020;SDS011;38907;45.562;8.856;2023-04-03T11:45:59;8.73;;;5.85;;
51020;SDS011;38907;45.562;8.856;2023-04-03T11:51:03;8.23;;;5.18;;
51020;SDS011;38907;45.562;8.856;2023-04-03T11:56:53;6.57;;;5.03;;
51020;SDS011;38907;45.562;8.856;2023-04-03T12:07:02;6.90;;;3.88;;
51020;SDS011;38907;45.562;8.856;2023-04-03T12:12:38;5.90;;;4.45;;
51020;SDS011;38907;45.562;8.856;2023-04-03T12:17:41;7.40;;;4.25;;
51020;SDS011;38907;45.562;8.856;2023-04-03T12:22:52;5.35;;;4.65;;
51020;SDS011;38907;45.562;8.856;2023-04-03T12:28:10;7.90;;;4.50;;
51020;SDS011;38907;45.562;8.856;2023-04-03T12:33:17;9.23;;;4.53;;
51020;SDS011;38907;45.562;8.856;2023-04-03T12:38:41;6.80;;;4.47;;
51020;SDS011;38907;45.562;8.856;2023-04-03T12:44:09;6.22;;;4.25;;
51020;SDS011;38907;45.562;8.856;2023-04-03T12:49:30;10.38;;;4.90;;
51020;SDS011;38907;45.562;8.856;2023-04-03T12:54:37;6.78;;;5.35;;
51020;SDS011;38907;45.562;8.856;2023-04-03T12:59:42;6.97;;;4.15;;
51020;SDS011;38907;45.562;8.856;2023-04-03T13:04:46;5.88;;;4.18;;
51020;SDS011;38907;45.562;8.856;2023-04-03T13:15:01;5.60;;;4.38;;
51020;SDS011;38907;45.562;8.856;2023-04-03T13:20:14;5.93;;;4.28;;
51020;SDS011;38907;45.562;8.856;2023-04-03T13:25:20;13.02;;;4.53;;
51020;SDS011;38907;45.562;8.856;2023-04-03T13:30:26;4.72;;;4.10;;
51020;SDS011;38907;45.562;8.856;2023-04-03T13:35:34;3.88;;;3.50;;
51020;SDS011;38907;45.562;8.856;2023-04-03T13:40:46;6.57;;;4.20;;
51020;SDS011;38907;45.562;8.856;2023-04-03T13:45:55;6.80;;;4.20;;
51020;SDS011;38907;45.562;8.856;2023-04-03T13:51:00;4.63;;;3.75;;
51020;SDS011;38907;45.562;8.856;2023-04-03T13:56:05;4.85;;;3.47;;
51020;SDS011;38907;45.562;8.856;2023-04-03T14:01:15;5.22;;;3.35;;
51020;SDS011;38907;45.562;8.856;2023-04-03T14:06:20;3.33;;;3.00;;
51020;SDS011;38907;45.562;8.856;2023-04-03T14:11:22;7.15;;;3.58;;
51020;SDS011;38907;45.562;8.856;2023-04-03T14:16:29;3.75;;;2.97;;
51020;SDS011;38907;45.562;8.856;2023-04-03T14:21:34;5.75;;;3.28;;
51020;SDS011;38907;45.562;8.856;2023-04-03T14:26:36;8.55;;;3.33;;
51020;SDS011;38907;45.562;8.856;2023-04-03T14:31:39;3.80;;;2.78;;
51020;SDS011;38907;45.562;8.856;2023-04-03T14:36:42;4.40;;;2.72;;
51020;SDS011;38907;45.562;8.856;2023-04-03T14:41:46;4.18;;;2.97;;
51020;SDS011;38907;45.562;8.856;2023-04-03T14:46:50;5.50;;;2.77;;
51020;SDS011;38907;45.562;8.856;2023-04-03T14:51:52;4.90;;;2.72;;
51020;SDS011;38907;45.562;8.856;2023-04-03T14:56:54;5.72;;;2.70;;
51020;SDS011;38907;45.562;8.856;2023-04-03T15:01:58;3.03;;;2.53;;
51020;SDS011;38907;45.562;8.856;2023-04-03T15:07:00;4.63;;;2.33;;
51020;SDS011;38907;45.562;8.856;2023-04-03T15:12:03;3.03;;;2.58;;
51020;SDS011;38907;45.562;8.856;2023-04-03T15:17:08;8.45;;;2.78;;
51020;SDS011;38907;45.562;8.856;2023-04-03T15:22:16;13.13;;;2.60;;
51020;SDS011;38907;45.562;8.856;2023-04-03T15:27:22;5.63;;;2.80;;
51020;SDS011;38907;45.562;8.856;2023-04-03T15:32:25;6.78;;;2.35;;
51020;SDS011;38907;45.562;8.856;2023-04-03T15:37:27;4.15;;;2.67;;
51020;SDS011;38907;45.562;8.856;2023-04-03T15:42:29;2.42;;;2.22;;
51020;SDS011;38907;45.562;8.856;2023-04-03T15:47:32;3.92;;;2.33;;
51020;SDS011;38907;45.562;8.856;2023-04-03T15:52:34;3.47;;;2.92;;
51020;SDS011;38907;45.562;8.856;2023-04-03T15:57:36;3.43;;;2.87;;
51020;SDS011;38907;45.562;8.856;2023-04-03T16:02:39;3.00;;;2.60;;
51020;SDS011;38907;45.562;8.856;2023-04-03T16:07:41;4.63;;;2.88;;
51020;SDS011;38907;45.562;8.856;2023-04-03T16:12:43;3.90;;;2.85;;
51020;SDS011;38907;45.562;8.856;2023-04-03T16:17:47;14.67;;;2.83;;
51020;SDS011;38907;45.562;8.856;2023-04-03T16:22:49;3.45;;;2.63;;
51020;SDS011;38907;45.562;8.856;2023-04-03T16:27:51;9.88;;;2.97;;
51020;SDS011;38907;45.562;8.856;2023-04-03T16:32:54;4.95;;;2.72;;
51020;SDS011;38907;45.562;8.856;2023-04-03T16:37:57;4.05;;;2.70;;
51020;SDS011;38907;45.562;8.856;2023-04-03T16:42:59;5.32;;;3.03;;
51020;SDS011;38907;45.562;8.856;2023-04-03T16:48:02;9.27;;;3.13;;
51020;SDS011;38907;45.562;8.856;2023-04-03T16:53:05;9.45;;;2.40;;
51020;SDS011;38907;45.562;8.856;2023-04-03T16:58:09;4.97;;;2.47;;
51020;SDS011;38907;45.562;8.856;2023-04-03T17:03:12;3.42;;;2.75;;
51020;SDS011;38907;45.562;8.856;2023-04-03T17:08:15;8.73;;;2.90;;
51020;SDS011;38907;45.562;8.856;2023-04-03T17:13:18;7.53;;;3.05;;
51020;SDS011;38907;45.562;8.856;2023-04-03T17:18:23;9.18;;;2.78;;
51020;SDS011;38907;45.562;8.856;2023-04-03T17:23:25;4.63;;;3.17;;
51020;SDS011;38907;45.562;8.856;2023-04-03T17:33:32;6.72;;;3.53;;
51020;SDS011;38907;45.562;8.856;2023-04-03T17:38:34;6.57;;;3.40;;
51020;SDS011;38907;45.562;8.856;2023-04-03T17:43:36;2.83;;;2.53;;
51020;SDS011;38907;45.562;8.856;2023-04-03T17:48:40;5.82;;;3.15;;
51020;SDS011;38907;45.562;8.856;2023-04-03T17:53:41;5.63;;;2.92;;
51020;SDS011;38907;45.562;8.856;2023-04-03T17:58:44;3.63;;;2.47;;
51020;SDS011;38907;45.562;8.856;2023-04-03T18:03:52;6.70;;;2.78;;
51020;SDS011;38907;45.562;8.856;2023-04-03T18:08:57;8.55;;;3.38;;
51020;SDS011;38907;45.562;8.856;2023-04-03T18:14:04;11.43;;;3.20;;
51020;SDS011;38907;45.562;8.856;2023-04-03T18:19:09;9.30;;;2.72;;
51020;SDS011;38907;45.562;8.856;2023-04-03T18:24:12;6.50;;;2.72;;
51020;SDS011;38907;45.562;8.856;2023-04-03T18:29:16;4.95;;;2.35;;
51020;SDS011;38907;45.562;8.856;2023-04-03T18:34:19;3.70;;;2.13;;
51020;SDS011;38907;45.562;8.856;2023-04-03T18:39:21;3.53;;;2.35;;
51020;SDS011;38907;45.562;8.856;2023-04-03T18:44:23;5.00;;;2.53;;
51020;SDS011;38907;45.562;8.856;2023-04-03T18:49:29;6.15;;;2.60;;
51020;SDS011;38907;45.562;8.856;2023-04-03T18:54:32;4.45;;;2.35;;
51020;SDS011;38907;45.562;8.856;2023-04-03T18:59:36;4.00;;;2.50;;
51020;SDS011;38907;45.562;8.856;2023-04-03T19:04:39;4.88;;;2.22;;
51020;SDS011;38907;45.562;8.856;2023-04-03T19:09:47;2.75;;;2.13;;
51020;SDS011;38907;45.562;8.856;2023-04-03T19:14:49;8.18;;;2.35;;
51020;SDS011;38907;45.562;8.856;2023-04-03T19:19:53;4.30;;;2.00;;
51020;SDS011;38907;45.562;8.856;2023-04-03T19:24:54;4.07;;;2.00;;
51020;SDS011;38907;45.562;8.856;2023-04-03T19:29:56;2.60;;;2.20;;
51020;SDS011;38907;45.562;8.856;2023-04-03T19:35:00;3.42;;;2.30;;
51020;SDS011;38907;45.562;8.856;2023-04-03T19:45:23;10.20;;;2.63;;
51020;SDS011;38907;45.562;8.856;2023-04-03T19:50:33;3.25;;;2.33;;
51020;SDS011;38907;45.562;8.856;2023-04-03T19:55:42;3.90;;;2.55;;
51020;SDS011;38907;45.562;8.856;2023-04-03T20:00:54;4.97;;;2.28;;
51020;SDS011;38907;45.562;8.856;2023-04-03T20:06:05;3.42;;;2.00;;
51020;SDS011;38907;45.562;8.856;2023-04-03T20:11:14;2.05;;;1.65;;
51020;SDS011;38907;45.562;8.856;2023-04-03T20:16:19;9.80;;;2.42;;
51020;SDS011;38907;45.562;8.856;2023-04-03T20:21:30;8.57;;;1.90;;
51020;SDS011;38907;45.562;8.856;2023-04-03T20:26:43;2.92;;;1.90;;
51020;SDS011;38907;45.562;8.856;2023-04-03T20:31:48;3.10;;;2.10;;
51020;SDS011;38907;45.562;8.856;2023-04-03T20:36:53;6.53;;;2.00;;
51020;SDS011;38907;45.562;8.856;2023-04-03T20:41:56;4.82;;;2.17;;
51020;SDS011;38907;45.562;8.856;2023-04-03T20:46:57;5.88;;;1.90;;
51020;SDS011;38907;45.562;8.856;2023-04-03T20:52:01;8.25;;;1.83;;
51020;SDS011;38907;45.562;8.856;2023-04-03T20:57:03;3.72;;;1.65;;
51020;SDS011;38907;45.562;8.856;2023-04-03T21:02:05;2.70;;;1.52;;
51020;SDS011;38907;45.562;8.856;2023-04-03T21:23:49;4.32;;;1.30;;
51020;SDS011;38907;45.562;8.856;2023-04-03T21:28:52;3.88;;;1.50;;
51020;SDS011;38907;45.562;8.856;2023-04-03T21:33:56;2.70;;;1.83;;
51020;SDS011;38907;45.562;8.856;2023-04-03T21:38:59;2.58;;;1.50;;
51020;SDS011;38907;45.562;8.856;2023-04-03T21:44:01;1.67;;;1.17;;
51020;SDS011;38907;45.562;8.856;2023-04-03T21:49:04;2.90;;;1.50;;
51020;SDS011;38907;45.562;8.856;2023-04-03T21:54:06;4.55;;;1.52;;
51020;SDS011;38907;45.562;8.856;2023-04-03T21:59:08;7.05;;;1.80;;
51020;SDS011;38907;45.562;8.856;2023-04-03T22:04:11;3.95;;;1.63;;
51020;SDS011;38907;45.562;8.856;2023-04-03T22:09:14;1.90;;;1.70;;
51020;SDS011;38907;45.562;8.856;2023-04-03T22:14:16;6.07;;;2.10;;
51020;SDS011;38907;45.562;8.856;2023-04-03T22:19:19;3.40;;;2.17;;
51020;SDS011;38907;45.562;8.856;2023-04-03T22:24:21;5.28;;;2.50;;
51020;SDS011;38907;45.562;8.856;2023-04-03T22:29:23;4.95;;;1.90;;
51020;SDS011;38907;45.562;8.856;2023-04-03T22:34:27;4.17;;;1.97;;
51020;SDS011;38907;45.562;8.856;2023-04-03T22:39:30;4.07;;;2.47;;
51020;SDS011;38907;45.562;8.856;2023-04-03T22:44:32;4.20;;;2.63;;
51020;SDS011;38907;45.562;8.856;2023-04-03T22:49:35;6.25;;;1.95;;
51020;SDS011;38907;45.562;8.856;2023-04-03T22:54:37;4.55;;;1.95;;
51020;SDS011;38907;45.562;8.856;2023-04-03T22:59:39;9.70;;;2.35;;
51020;SDS011;38907;45.562;8.856;2023-04-03T23:04:42;3.35;;;1.85;;
51020;SDS011;38907;45.562;8.856;2023-04-03T23:09:44;8.52;;;2.40;;
51020;SDS011;38907;45.562;8.856;2023-04-03T23:14:45;5.78;;;1.95;;
51020;SDS011;38907;45.562;8.856;2023-04-03T23:19:49;5.40;;;1.98;;
51020;SDS011;38907;45.562;8.856;2023-04-03T23:24:51;3.90;;;1.90;;
51020;SDS011;38907;45.562;8.856;2023-04-03T23:29:53;2.85;;;1.60;;
51020;SDS011;38907;45.562;8.856;2023-04-03T23:34:56;3.17;;;1.40;;
51020;SDS011;38907;45.562;8.856;2023-04-03T23:39:58;2.47;;;1.63;;
51020;SDS011;38907;45.562;8.856;2023-04-03T23:45:01;5.53;;;1.70;;
51020;SDS011;38907;45.562;8.856;2023-04-03T23:50:05;1.73;;;1.30;;
51020;SDS011;38907;45.562;8.856;2023-04-03T23:55:07;3.22;;;1.45;;
